Time;durP1;ratioP1;P1;durP2;ratioP2;P2;SDS_P1;SDS_P2;PMS_P1;PMS_P2;Temp;Humidity;BMP_temperature;BMP_pressure;BME280_temperature;BME280_humidity;BME280_pressure;Samples;Min_cycle;Max_cycle;Signal;HPM_P1;HPM_P2
2023/09/14 00:00:50;;;;;;;7.85;2.78;;;18.50;67.70;;;;;;5033775;28;20041;-70
2023/09/14 00:03:17;;;;;;;8.05;2.30;;;18.50;67.60;;;;;;5033556;28;20026;-70
2023/09/14 00:05:44;;;;;;;7.55;2.33;;;18.50;67.70;;;;;;5036995;28;20033;-70
2023/09/14 00:08:10;;;;;;;6.95;2.05;;;18.50;67.60;;;;;;5037441;28;20029;-70
2023/09/14 00:10:36;;;;;;;8.15;2.58;;;18.50;67.60;;;;;;5054466;28;20017;-70
2023/09/14 00:13:03;;;;;;;6.80;2.50;;;18.50;67.60;;;;;;5037756;28;20354;-70
2023/09/14 00:15:29;;;;;;;8.27;2.28;;;18.50;67.70;;;;;;5053762;28;20021;-70
2023/09/14 00:17:55;;;;;;;7.80;2.58;;;18.50;67.70;;;;;;5038389;28;20036;-70
2023/09/14 00:20:23;;;;;;;6.95;2.20;;;18.50;67.70;;;;;;5035455;28;20038;-71
2023/09/14 00:22:53;;;;;;;7.25;2.05;;;18.50;67.80;;;;;;5038359;28;20121;-70
2023/09/14 00:25:20;;;;;;;8.93;2.38;;;18.60;67.90;;;;;;5036985;28;20354;-70
2023/09/14 00:27:46;;;;;;;6.80;2.20;;;18.50;68.50;;;;;;5037885;28;20079;-70
2023/09/14 00:30:12;;;;;;;9.27;2.42;;;18.50;67.90;;;;;;5053816;28;20052;-70
2023/09/14 00:32:39;;;;;;;7.13;2.83;;;18.50;67.90;;;;;;5035082;28;20526;-70
2023/09/14 00:35:12;;;;;;;8.07;2.50;;;18.50;67.90;;;;;;5037933;28;20095;-70
2023/09/14 00:38:09;;;;;;;9.07;2.50;;;18.50;67.90;;;;;;5053225;28;20040;-70
2023/09/14 00:40:35;;;;;;;7.00;2.30;;;18.60;67.70;;;;;;5036722;28;20036;-70
2023/09/14 00:43:01;;;;;;;8.05;2.42;;;18.50;67.70;;;;;;5036237;28;20025;-70
2023/09/14 00:45:26;;;;;;;5.03;2.00;;;18.50;67.60;;;;;;5038107;28;20052;-70
2023/09/14 00:47:54;;;;;;;9.63;2.55;;;18.50;67.40;;;;;;5036907;28;20356;-70
2023/09/14 00:50:22;;;;;;;8.02;2.35;;;18.50;67.30;;;;;;5036914;28;20091;-70
2023/09/14 00:53:02;;;;;;;7.80;2.60;;;18.50;67.20;;;;;;5028182;28;20036;-70
2023/09/14 00:55:29;;;;;;;6.65;2.25;;;18.50;67.10;;;;;;5053278;28;20110;-71
2023/09/14 00:57:56;;;;;;;8.25;2.88;;;18.50;67.10;;;;;;5052181;28;20403;-71
2023/09/14 01:00:22;;;;;;;6.18;2.25;;;18.50;67.00;;;;;;5045854;28;20116;-70
2023/09/14 01:02:52;;;;;;;6.15;2.08;;;18.50;67.00;;;;;;5042852;28;20033;-70
2023/09/14 01:05:18;;;;;;;9.00;2.22;;;18.50;66.90;;;;;;5053223;28;20024;-70
2023/09/14 01:07:44;;;;;;;10.52;2.60;;;18.50;66.90;;;;;;5056348;28;20454;-70
2023/09/14 01:10:12;;;;;;;7.13;2.50;;;18.50;66.90;;;;;;5039017;28;20033;-70
2023/09/14 01:12:39;;;;;;;7.60;2.03;;;18.50;66.90;;;;;;5037894;28;20033;-70
2023/09/14 01:15:27;;;;;;;8.32;2.25;;;18.50;66.90;;;;;;5038846;28;20040;-70
2023/09/14 01:18:05;;;;;;;9.00;2.50;;;18.50;66.80;;;;;;5024440;28;20105;-70
2023/09/14 01:20:49;;;;;;;8.52;2.35;;;18.50;66.90;;;;;;5068855;28;20040;-70
2023/09/14 01:23:47;;;;;;;10.25;2.05;;;18.50;66.80;;;;;;5037292;28;20528;-70
2023/09/14 01:26:18;;;;;;;7.85;2.30;;;18.50;67.00;;;;;;5035927;28;20037;-70
2023/09/14 01:28:44;;;;;;;8.35;2.55;;;18.50;66.90;;;;;;5035919;28;20096;-70
2023/09/14 01:31:09;;;;;;;8.60;2.42;;;18.50;67.00;;;;;;5035472;28;20060;-70
2023/09/14 01:33:36;;;;;;;9.00;2.38;;;18.50;66.90;;;;;;5043670;28;20506;-70
2023/09/14 01:36:14;;;;;;;8.23;1.92;;;18.50;66.90;;;;;;5069754;28;20078;-70
2023/09/14 01:38:42;;;;;;;7.85;2.13;;;18.50;66.90;;;;;;5055767;28;20055;-70
2023/09/14 01:41:10;;;;;;;9.43;2.35;;;18.50;67.00;;;;;;5039302;28;20079;-70
2023/09/14 01:43:36;;;;;;;8.18;2.22;;;18.40;67.00;;;;;;5052756;28;20025;-70
2023/09/14 01:46:03;;;;;;;7.78;2.33;;;18.50;67.10;;;;;;5049496;28;20033;-70
2023/09/14 01:48:30;;;;;;;6.63;2.13;;;18.50;67.10;;;;;;5048976;28;20171;-70
2023/09/14 01:50:56;;;;;;;8.77;2.60;;;18.50;67.10;;;;;;5041114;28;20112;-70
2023/09/14 01:53:21;;;;;;;6.82;2.30;;;18.50;67.00;;;;;;5054992;28;20389;-70
2023/09/14 01:55:47;;;;;;;6.95;2.45;;;18.50;67.10;;;;;;5044462;28;20183;-70
2023/09/14 01:58:13;;;;;;;6.53;1.95;;;18.40;67.10;;;;;;5036782;28;20063;-70
2023/09/14 02:00:39;;;;;;;8.68;2.42;;;18.40;67.20;;;;;;5051721;28;20080;-70
2023/09/14 02:03:05;;;;;;;8.98;2.60;;;18.40;67.30;;;;;;5052769;28;20315;-70
2023/09/14 02:05:30;;;;;;;9.00;2.22;;;18.40;67.30;;;;;;5049810;28;20021;-69
2023/09/14 02:07:56;;;;;;;6.97;2.10;;;18.30;67.30;;;;;;5049172;28;20442;-70
2023/09/14 02:10:22;;;;;;;6.93;2.22;;;18.40;67.40;;;;;;5056393;28;20422;-70
2023/09/14 02:12:49;;;;;;;6.75;2.35;;;18.40;68.10;;;;;;5047524;28;20453;-70
2023/09/14 02:15:15;;;;;;;8.85;2.60;;;18.30;67.50;;;;;;5055051;28;20021;-70
2023/09/14 02:17:41;;;;;;;8.30;2.40;;;18.30;67.60;;;;;;5055188;28;20033;-70
2023/09/14 02:20:10;;;;;;;9.48;2.30;;;18.20;67.50;;;;;;5054982;28;20428;-70
2023/09/14 02:22:36;;;;;;;8.85;2.40;;;18.20;67.60;;;;;;5036638;28;20120;-70
2023/09/14 02:25:02;;;;;;;8.20;2.53;;;18.20;67.70;;;;;;5048836;28;20112;-70
2023/09/14 02:27:28;;;;;;;8.13;2.35;;;18.20;67.80;;;;;;5037021;28;20047;-70
2023/09/14 02:29:56;;;;;;;4.55;1.77;;;18.10;67.70;;;;;;5036174;28;20033;-70
2023/09/14 02:32:23;;;;;;;7.32;2.45;;;18.10;67.90;;;;;;5055558;28;20339;-70
2023/09/14 02:34:49;;;;;;;6.90;2.25;;;18.10;68.00;;;;;;5054679;28;20029;-69
2023/09/14 02:37:15;;;;;;;8.25;2.42;;;18.10;68.00;;;;;;5048675;28;20026;-70
2023/09/14 02:39:41;;;;;;;6.45;2.10;;;18.10;68.10;;;;;;5048055;28;20063;-70
2023/09/14 02:42:07;;;;;;;7.70;2.30;;;18.00;68.10;;;;;;5049033;28;20025;-69
2023/09/14 02:44:32;;;;;;;8.90;2.42;;;18.00;68.10;;;;;;5054347;28;20354;-69
2023/09/14 02:46:58;;;;;;;7.00;2.05;;;17.90;68.20;;;;;;5053129;28;20100;-69
2023/09/14 02:49:24;;;;;;;9.77;2.70;;;17.80;68.30;;;;;;5052089;28;20083;-70
2023/09/14 02:51:51;;;;;;;9.70;2.58;;;17.80;68.50;;;;;;5054148;28;20021;-70
2023/09/14 02:54:18;;;;;;;5.78;1.98;;;17.80;68.60;;;;;;5054325;28;20036;-70
2023/09/14 02:56:44;;;;;;;6.63;2.00;;;17.70;68.70;;;;;;5046218;28;20026;-70
2023/09/14 02:59:10;;;;;;;6.75;2.10;;;17.70;68.80;;;;;;5063975;28;20117;-69
2023/09/14 03:01:37;;;;;;;7.50;2.22;;;17.70;68.90;;;;;;5051153;28;20140;-70
2023/09/14 03:04:04;;;;;;;5.25;2.03;;;17.60;69.00;;;;;;5059542;28;20446;-72
2023/09/14 03:06:29;;;;;;;6.95;2.42;;;17.60;69.00;;;;;;5039794;28;20042;-70
2023/09/14 03:08:56;;;;;;;7.22;2.28;;;17.50;69.10;;;;;;5032523;28;20025;-69
2023/09/14 03:11:21;;;;;;;5.80;2.15;;;17.50;69.10;;;;;;5032477;28;20100;-69
2023/09/14 03:13:47;;;;;;;7.75;2.47;;;17.50;69.20;;;;;;5036974;28;20119;-70
2023/09/14 03:16:13;;;;;;;6.95;2.17;;;17.40;69.20;;;;;;5048695;28;20434;-69
2023/09/14 03:18:39;;;;;;;7.05;2.40;;;17.40;69.40;;;;;;5052160;28;20442;-70
2023/09/14 03:21:05;;;;;;;8.23;2.50;;;17.40;69.60;;;;;;5031398;28;20026;-69
2023/09/14 03:23:32;;;;;;;10.52;2.80;;;17.40;69.60;;;;;;5048886;28;20470;-70
2023/09/14 03:25:57;;;;;;;6.72;2.33;;;17.30;69.50;;;;;;5049133;28;20036;-70
2023/09/14 03:28:23;;;;;;;9.20;2.25;;;17.30;69.70;;;;;;5049723;28;20029;-70
2023/09/14 03:30:49;;;;;;;5.68;2.10;;;17.30;69.80;;;;;;5036303;28;20099;-69
2023/09/14 03:33:15;;;;;;;9.63;2.33;;;17.30;69.80;;;;;;5039329;28;20056;-70
2023/09/14 03:35:41;;;;;;;7.25;2.30;;;17.20;69.90;;;;;;5051915;28;20111;-69
2023/09/14 03:38:07;;;;;;;8.20;2.05;;;17.20;70.00;;;;;;5022839;28;20030;-70
2023/09/14 03:40:33;;;;;;;5.75;2.25;;;17.20;70.10;;;;;;5048515;28;20025;-69
2023/09/14 03:42:59;;;;;;;7.18;2.10;;;17.20;70.10;;;;;;5041701;28;20438;-69
2023/09/14 03:45:24;;;;;;;8.23;2.85;;;17.20;70.10;;;;;;5035312;28;20040;-69
2023/09/14 03:47:51;;;;;;;9.02;2.72;;;17.10;70.20;;;;;;5043032;28;20033;-69
2023/09/14 03:50:18;;;;;;;7.38;1.90;;;17.10;70.30;;;;;;5033261;28;20119;-69
2023/09/14 03:52:44;;;;;;;7.50;2.65;;;17.10;70.30;;;;;;5041177;28;20028;-69
2023/09/14 03:55:10;;;;;;;7.20;2.45;;;17.10;70.40;;;;;;5035012;28;20021;-70
2023/09/14 03:57:36;;;;;;;6.07;2.50;;;17.00;70.40;;;;;;5040786;28;20148;-69
2023/09/14 04:00:09;;;;;;;6.57;2.70;;;17.00;70.40;;;;;;5035924;28;20025;-69
2023/09/14 04:02:39;;;;;;;6.72;1.92;;;17.00;70.50;;;;;;5037332;28;20037;-69
2023/09/14 04:05:14;;;;;;;7.47;2.25;;;17.00;70.50;;;;;;5062144;28;20017;-69
2023/09/14 04:07:41;;;;;;;8.63;2.25;;;17.00;70.50;;;;;;5053258;28;20454;-69
2023/09/14 04:10:10;;;;;;;7.15;2.30;;;16.90;70.60;;;;;;5040818;28;20017;-69
2023/09/14 04:12:38;;;;;;;7.97;2.45;;;16.90;70.60;;;;;;5054398;28;20327;-69
2023/09/14 04:15:04;;;;;;;6.25;2.17;;;16.90;70.70;;;;;;5034267;28;20568;-69
2023/09/14 04:17:30;;;;;;;6.20;2.03;;;16.90;70.70;;;;;;5052933;28;20013;-69
2023/09/14 04:19:57;;;;;;;7.20;2.38;;;16.90;70.80;;;;;;5042371;28;20028;-69
2023/09/14 04:22:23;;;;;;;6.13;2.30;;;16.80;70.80;;;;;;5053798;28;20021;-69
2023/09/14 04:24:52;;;;;;;8.60;2.38;;;16.80;70.80;;;;;;5051233;28;20032;-69
2023/09/14 04:27:17;;;;;;;5.72;2.10;;;16.80;70.90;;;;;;5034887;28;20025;-69
2023/09/14 04:29:44;;;;;;;10.23;2.38;;;16.80;70.90;;;;;;5032596;28;20039;-69
2023/09/14 04:32:10;;;;;;;7.18;2.50;;;16.70;71.00;;;;;;5031296;28;20025;-69
2023/09/14 04:34:36;;;;;;;8.55;2.50;;;16.70;71.00;;;;;;5031887;28;20028;-69
2023/09/14 04:37:03;;;;;;;5.43;2.30;;;16.70;71.00;;;;;;5030076;28;20025;-69
2023/09/14 04:39:30;;;;;;;7.43;2.58;;;16.70;71.10;;;;;;5039887;28;20040;-69
2023/09/14 04:41:56;;;;;;;6.80;2.65;;;16.70;71.10;;;;;;5032595;28;20448;-69
2023/09/14 04:44:22;;;;;;;7.20;2.33;;;16.60;71.20;;;;;;5035777;28;20041;-69
2023/09/14 04:46:48;;;;;;;8.25;2.47;;;16.60;71.20;;;;;;5014713;28;20029;-69
2023/09/14 04:49:14;;;;;;;7.95;2.10;;;16.60;71.20;;;;;;5033191;28;20056;-69
2023/09/14 04:51:39;;;;;;;7.70;2.42;;;16.60;71.20;;;;;;5043597;28;20014;-69
2023/09/14 04:54:05;;;;;;;7.20;2.55;;;16.60;71.30;;;;;;5020545;28;20534;-69
2023/09/14 04:56:32;;;;;;;7.82;2.83;;;16.60;71.30;;;;;;5034638;28;20021;-69
2023/09/14 04:58:58;;;;;;;8.10;2.53;;;16.60;71.30;;;;;;5032088;28;20128;-68
2023/09/14 05:01:23;;;;;;;7.43;2.60;;;16.50;71.30;;;;;;5033270;28;20037;-69
2023/09/14 05:03:50;;;;;;;6.63;2.60;;;16.50;71.30;;;;;;5017231;28;20040;-69
2023/09/14 05:06:15;;;;;;;4.60;1.98;;;16.50;71.30;;;;;;5031188;28;20029;-69
2023/09/14 05:08:41;;;;;;;7.10;2.30;;;16.50;71.30;;;;;;5037108;28;20056;-69
2023/09/14 05:11:07;;;;;;;7.85;2.42;;;16.50;71.40;;;;;;5063639;28;20199;-69
2023/09/14 05:13:33;;;;;;;7.35;2.85;;;16.50;71.40;;;;;;5039438;28;20104;-69
2023/09/14 05:15:59;;;;;;;8.27;2.50;;;16.50;71.50;;;;;;5052779;28;20125;-69
2023/09/14 05:18:27;;;;;;;7.38;2.67;;;16.50;71.50;;;;;;5020110;28;20073;-69
2023/09/14 05:20:52;;;;;;;6.95;2.42;;;16.40;71.50;;;;;;5019827;28;20028;-69
2023/09/14 05:23:18;;;;;;;9.90;2.55;;;16.40;71.50;;;;;;5051527;28;20436;-69
2023/09/14 05:25:45;;;;;;;7.43;2.50;;;16.40;71.50;;;;;;5036475;28;20374;-69
2023/09/14 05:28:12;;;;;;;7.07;2.42;;;16.40;71.50;;;;;;5036953;28;20080;-69
2023/09/14 05:30:38;;;;;;;9.85;3.00;;;16.40;71.50;;;;;;5035394;28;20033;-69
2023/09/14 05:33:07;;;;;;;7.78;2.60;;;16.40;71.50;;;;;;5035613;28;20033;-69
2023/09/14 05:35:33;;;;;;;6.53;2.70;;;16.40;71.50;;;;;;5032170;28;20123;-69
2023/09/14 05:37:59;;;;;;;7.65;2.78;;;16.40;71.50;;;;;;5048551;28;20076;-69
2023/09/14 05:40:25;;;;;;;7.30;2.80;;;16.40;71.50;;;;;;5028705;28;20022;-69
2023/09/14 05:42:51;;;;;;;9.48;2.60;;;16.40;71.50;;;;;;5046823;28;20032;-69
2023/09/14 05:45:17;;;;;;;7.10;2.38;;;16.40;71.60;;;;;;5042294;28;20017;-69
2023/09/14 05:47:44;;;;;;;9.20;2.97;;;16.40;71.60;;;;;;5045528;28;20049;-69
2023/09/14 05:50:10;;;;;;;6.80;2.78;;;16.50;71.70;;;;;;5026522;28;20066;-69
2023/09/14 05:52:36;;;;;;;6.78;2.80;;;16.50;71.70;;;;;;5046468;28;20054;-69
2023/09/14 05:55:03;;;;;;;9.50;3.00;;;16.50;71.70;;;;;;5044288;28;20079;-70
2023/09/14 05:57:31;;;;;;;7.72;3.22;;;16.60;71.70;;;;;;5047259;28;20013;-69
2023/09/14 05:59:59;;;;;;;10.20;3.05;;;16.60;71.70;;;;;;5045210;28;20450;-69
2023/09/14 06:02:26;;;;;;;7.25;2.58;;;16.60;71.60;;;;;;5043564;28;20022;-69
2023/09/14 06:04:53;;;;;;;8.70;3.10;;;16.70;71.60;;;;;;5045112;28;20022;-69
2023/09/14 06:07:19;;;;;;;9.45;3.20;;;16.70;71.60;;;;;;5042387;28;20349;-69
2023/09/14 06:09:44;;;;;;;7.75;2.83;;;16.70;71.60;;;;;;5052839;28;20116;-68
2023/09/14 06:12:10;;;;;;;9.13;3.22;;;16.80;71.60;;;;;;5029158;28;20103;-68
2023/09/14 06:14:37;;;;;;;5.57;2.60;;;16.80;71.50;;;;;;5040683;28;20467;-68
2023/09/14 06:17:03;;;;;;;10.48;3.63;;;16.90;71.50;;;;;;5030623;28;20026;-68
2023/09/14 06:19:29;;;;;;;8.68;2.97;;;16.90;71.40;;;;;;5031678;28;20057;-68
2023/09/14 06:21:55;;;;;;;8.30;3.40;;;17.00;71.30;;;;;;5047647;28;20053;-68
2023/09/14 06:24:20;;;;;;;9.88;3.10;;;17.00;71.20;;;;;;5046397;28;20451;-68
2023/09/14 06:26:48;;;;;;;9.90;3.28;;;17.10;71.00;;;;;;5028753;28;20459;-68
2023/09/14 06:29:16;;;;;;;14.07;4.00;;;17.20;70.80;;;;;;5033438;28;20060;-68
2023/09/14 06:31:42;;;;;;;9.25;3.83;;;17.30;70.70;;;;;;5047745;28;20029;-69
2023/09/14 06:34:08;;;;;;;9.48;3.72;;;17.30;70.50;;;;;;5034773;28;20425;-69
2023/09/14 06:36:34;;;;;;;11.60;3.58;;;17.40;70.30;;;;;;5033587;28;20520;-69
2023/09/14 06:39:00;;;;;;;8.93;3.33;;;17.50;70.00;;;;;;5032622;28;20029;-68
2023/09/14 06:41:25;;;;;;;8.45;2.92;;;17.60;69.80;;;;;;5032663;28;20350;-69
2023/09/14 06:43:51;;;;;;;10.23;3.40;;;17.70;69.70;;;;;;5035865;28;20061;-69
2023/09/14 06:46:17;;;;;;;10.38;3.55;;;17.80;69.50;;;;;;5035007;28;20076;-69
2023/09/14 06:48:43;;;;;;;11.75;4.05;;;17.90;69.30;;;;;;5044263;28;20124;-68
2023/09/14 06:51:08;;;;;;;11.77;3.70;;;17.90;69.10;;;;;;5013168;28;20077;-69
2023/09/14 06:53:35;;;;;;;10.88;4.35;;;18.00;69.10;;;;;;5033858;28;20032;-70
2023/09/14 06:56:08;;;;;;;8.40;4.05;;;18.00;69.00;;;;;;5029438;28;20423;-69
2023/09/14 06:58:35;;;;;;;10.30;4.10;;;18.10;69.10;;;;;;5034590;28;20465;-71
2023/09/14 07:01:03;;;;;;;8.95;3.78;;;18.10;69.00;;;;;;5034437;28;20139;-73
2023/09/14 07:03:34;;;;;;;11.48;4.22;;;18.10;69.00;;;;;;5042146;28;20022;-72
2023/09/14 07:06:01;;;;;;;9.63;3.90;;;18.20;68.90;;;;;;5013574;28;20045;-72
2023/09/14 07:08:27;;;;;;;9.85;4.40;;;18.20;68.90;;;;;;5018236;28;20025;-71
2023/09/14 07:10:54;;;;;;;10.88;4.15;;;18.30;68.80;;;;;;5031819;28;20021;-72
2023/09/14 07:13:21;;;;;;;11.50;4.10;;;18.40;69.10;;;;;;5030730;28;20026;-72
2023/09/14 07:15:46;;;;;;;14.32;4.68;;;18.40;68.10;;;;;;5032249;28;20036;-75
2023/09/14 07:18:28;;;;;;;8.90;3.83;;;18.50;68.10;;;;;;5031058;28;20033;-72
2023/09/14 07:20:59;;;;;;;8.25;3.67;;;18.70;67.70;;;;;;5028527;28;20115;-73
2023/09/14 07:23:26;;;;;;;11.30;4.20;;;18.80;67.60;;;;;;5030654;28;20036;-68
2023/09/14 07:25:52;;;;;;;8.55;3.85;;;18.80;67.40;;;;;;5029686;28;20092;-70
2023/09/14 07:28:19;;;;;;;11.10;4.35;;;18.80;67.10;;;;;;5045689;28;20041;-71
2023/09/14 07:30:47;;;;;;;12.30;3.88;;;18.80;67.10;;;;;;5029334;28;20156;-71
2023/09/14 07:33:13;;;;;;;13.32;4.35;;;18.80;66.80;;;;;;5028952;28;20029;-73
2023/09/14 07:35:42;;;;;;;8.75;3.63;;;18.90;66.80;;;;;;5013988;28;20013;-70
2023/09/14 07:38:09;;;;;;;12.07;3.75;;;19.00;66.60;;;;;;5031598;28;20025;-73
2023/09/14 07:40:36;;;;;;;9.45;3.40;;;19.10;66.30;;;;;;5029681;28;20446;-74
2023/09/14 07:43:02;;;;;;;10.82;3.88;;;19.20;66.20;;;;;;5025165;28;20025;-75
2023/09/14 07:45:30;;;;;;;10.45;3.28;;;19.30;65.70;;;;;;5030547;28;20029;-77
2023/09/14 07:47:56;;;;;;;10.25;3.53;;;19.40;65.10;;;;;;5037358;28;20033;-76
2023/09/14 07:50:22;;;;;;;8.40;3.40;;;19.50;64.70;;;;;;5032327;28;20064;-78
2023/09/14 07:52:48;;;;;;;6.70;3.10;;;19.60;64.50;;;;;;5031466;28;20025;-75
2023/09/14 07:55:13;;;;;;;10.10;3.25;;;19.70;64.10;;;;;;5011439;28;20022;-74
2023/09/14 07:57:39;;;;;;;11.90;3.80;;;19.80;63.80;;;;;;5030371;28;20108;-73
2023/09/14 08:00:07;;;;;;;11.43;3.50;;;20.00;63.70;;;;;;5041551;28;20030;-74
2023/09/14 08:02:37;;;;;;;12.60;4.18;;;20.10;63.40;;;;;;5032292;28;20033;-74
2023/09/14 08:05:03;;;;;;;11.82;4.22;;;20.30;63.40;;;;;;5030058;28;20398;-75
2023/09/14 08:07:29;;;;;;;11.02;4.05;;;20.40;63.10;;;;;;5030247;28;20026;-74
2023/09/14 08:09:55;;;;;;;11.20;3.70;;;20.40;62.80;;;;;;5032231;28;20029;-73
2023/09/14 08:12:20;;;;;;;13.13;4.28;;;20.50;62.60;;;;;;5033321;28;20018;-73
2023/09/14 08:14:46;;;;;;;11.40;3.88;;;20.60;62.50;;;;;;5033065;28;20338;-73
2023/09/14 08:17:12;;;;;;;11.90;3.35;;;20.70;62.50;;;;;;5063847;28;20032;-72
2023/09/14 08:19:38;;;;;;;10.15;3.50;;;20.80;62.30;;;;;;5044111;28;20017;-72
2023/09/14 08:22:04;;;;;;;9.73;3.53;;;20.90;62.30;;;;;;5040345;28;20043;-72
2023/09/14 08:24:30;;;;;;;9.90;3.53;;;20.90;62.00;;;;;;5050920;28;20341;-72
2023/09/14 08:26:55;;;;;;;10.02;3.55;;;21.00;61.60;;;;;;5052795;28;20120;-72
2023/09/14 08:29:21;;;;;;;12.77;4.03;;;21.10;61.60;;;;;;5050588;28;20030;-72
2023/09/14 08:31:51;;;;;;;12.27;3.55;;;21.20;61.40;;;;;;5050040;28;20028;-72
2023/09/14 08:34:16;;;;;;;9.60;3.35;;;21.20;61.00;;;;;;5051304;28;20025;-72
2023/09/14 08:36:42;;;;;;;9.23;3.67;;;21.30;60.60;;;;;;5036518;28;20480;-72
2023/09/14 08:39:08;;;;;;;9.27;3.35;;;21.40;60.30;;;;;;5024175;28;20029;-72
2023/09/14 08:41:39;;;;;;;10.35;3.47;;;21.50;60.10;;;;;;5045985;28;20096;-72
2023/09/14 08:44:06;;;;;;;10.02;3.90;;;21.60;60.40;;;;;;5037864;28;20025;-72
2023/09/14 08:46:35;;;;;;;11.43;3.50;;;21.70;59.80;;;;;;5040036;28;20021;-72
2023/09/14 08:49:03;;;;;;;10.23;3.78;;;21.80;59.70;;;;;;5037339;28;20346;-72
2023/09/14 08:51:32;;;;;;;8.05;3.28;;;22.00;59.40;;;;;;5032739;28;20077;-72
2023/09/14 08:53:59;;;;;;;11.70;3.35;;;22.10;59.10;;;;;;5035607;28;20017;-72
2023/09/14 08:56:25;;;;;;;7.93;2.67;;;22.40;58.90;;;;;;5034786;28;20025;-72
2023/09/14 08:58:51;;;;;;;8.07;2.70;;;22.50;58.20;;;;;;5035456;28;20029;-72
2023/09/14 09:01:17;;;;;;;9.70;3.38;;;22.70;57.70;;;;;;5035558;28;20033;-72
2023/09/14 09:03:44;;;;;;;6.35;2.85;;;22.80;57.60;;;;;;5051803;28;20036;-72
2023/09/14 09:06:14;;;;;;;7.95;3.00;;;22.90;57.40;;;;;;5037646;28;20343;-72
2023/09/14 09:08:41;;;;;;;8.85;2.58;;;22.90;57.30;;;;;;5051453;28;20198;-72
2023/09/14 09:11:07;;;;;;;9.15;2.70;;;23.00;57.20;;;;;;5035941;28;20021;-72
2023/09/14 09:13:40;;;;;;;7.75;3.08;;;23.10;57.00;;;;;;5049106;28;20052;-72
2023/09/14 09:16:06;;;;;;;10.43;3.67;;;23.20;56.90;;;;;;5036460;28;20035;-73
2023/09/14 09:18:35;;;;;;;7.22;2.83;;;23.20;56.70;;;;;;5036138;28;20029;-73
2023/09/14 09:21:05;;;;;;;8.70;3.15;;;23.30;56.60;;;;;;5034041;28;20375;-73
2023/09/14 09:23:34;;;;;;;8.68;3.90;;;23.40;56.10;;;;;;5037363;28;20401;-72
2023/09/14 09:26:01;;;;;;;10.32;3.65;;;23.40;55.90;;;;;;5036856;28;20037;-73
2023/09/14 09:28:30;;;;;;;10.80;3.78;;;23.40;55.80;;;;;;5034993;28;20116;-73
2023/09/14 09:30:56;;;;;;;12.82;3.90;;;23.40;55.90;;;;;;5018777;28;20018;-73
2023/09/14 09:33:37;;;;;;;9.15;3.25;;;23.50;56.00;;;;;;5036295;28;20025;-73
2023/09/14 09:36:16;;;;;;;10.93;3.70;;;23.60;55.70;;;;;;5044867;28;20017;-73
2023/09/14 09:38:42;;;;;;;9.90;3.40;;;23.80;55.70;;;;;;5043544;28;20035;-73
2023/09/14 09:41:10;;;;;;;10.38;3.63;;;23.80;55.50;;;;;;5057090;28;20021;-73
2023/09/14 09:43:37;;;;;;;10.02;3.80;;;23.90;55.30;;;;;;5056973;28;20068;-73
2023/09/14 09:46:03;;;;;;;7.57;3.25;;;24.00;54.90;;;;;;5055977;28;20351;-73
2023/09/14 09:48:30;;;;;;;8.60;3.33;;;24.00;54.70;;;;;;5047074;28;20025;-73
2023/09/14 09:50:55;;;;;;;9.60;3.58;;;24.00;54.60;;;;;;5042031;28;20679;-73
2023/09/14 09:53:22;;;;;;;10.77;4.30;;;24.10;54.60;;;;;;5048206;28;20036;-73
2023/09/14 09:55:48;;;;;;;9.07;3.75;;;24.10;54.50;;;;;;5051499;28;20476;-73
2023/09/14 09:58:17;;;;;;;8.35;3.53;;;23.90;54.70;;;;;;5053895;28;20073;-73
2023/09/14 10:00:43;;;;;;;10.65;4.38;;;23.70;55.10;;;;;;5049116;28;20491;-73
2023/09/14 10:03:09;;;;;;;9.20;3.60;;;23.60;55.20;;;;;;5040845;28;20076;-73
2023/09/14 10:05:39;;;;;;;8.27;3.33;;;23.50;55.60;;;;;;5055083;28;20473;-73
2023/09/14 10:08:14;;;;;;;9.35;3.67;;;23.50;55.50;;;;;;5054871;28;20028;-73
2023/09/14 10:10:41;;;;;;;8.05;3.83;;;23.60;55.30;;;;;;5037334;28;20032;-73
2023/09/14 10:13:09;;;;;;;8.65;3.25;;;23.70;55.20;;;;;;5055948;28;20450;-73
2023/09/14 10:15:36;;;;;;;9.93;3.70;;;23.80;55.00;;;;;;5044211;28;20093;-73
2023/09/14 10:18:03;;;;;;;8.05;3.47;;;23.60;54.90;;;;;;5047774;28;20035;-73
2023/09/14 10:20:29;;;;;;;8.20;3.50;;;23.30;55.00;;;;;;5046580;28;20076;-73
2023/09/14 10:22:57;;;;;;;9.57;4.10;;;23.10;55.40;;;;;;5045130;28;20032;-73
2023/09/14 10:25:23;;;;;;;11.57;4.28;;;22.90;55.50;;;;;;5042259;28;20061;-73
2023/09/14 10:27:48;;;;;;;10.13;3.83;;;22.70;56.00;;;;;;5040671;28;20492;-73
2023/09/14 10:30:17;;;;;;;10.23;4.13;;;22.60;56.40;;;;;;5045770;28;20100;-73
2023/09/14 10:32:45;;;;;;;11.95;4.05;;;22.90;56.40;;;;;;5043556;28;20120;-73
2023/09/14 10:35:11;;;;;;;9.30;3.53;;;23.20;55.80;;;;;;5033636;28;20425;-72
2023/09/14 10:37:44;;;;;;;9.45;4.22;;;23.50;55.30;;;;;;5048520;28;20120;-72
2023/09/14 10:40:12;;;;;;;8.40;3.15;;;23.60;54.80;;;;;;5051066;28;20025;-75
2023/09/14 10:42:39;;;;;;;8.73;3.72;;;23.50;54.80;;;;;;5049643;28;20053;-74
2023/09/14 10:45:07;;;;;;;8.63;3.15;;;23.30;55.20;;;;;;5051397;28;20404;-74
2023/09/14 10:47:37;;;;;;;8.77;3.17;;;23.20;55.60;;;;;;5027143;28;20140;-74
2023/09/14 10:50:06;;;;;;;9.60;3.60;;;23.30;55.70;;;;;;5037248;28;20465;-73
2023/09/14 10:52:33;;;;;;;8.43;3.25;;;23.50;54.60;;;;;;5047799;28;20493;-73
2023/09/14 10:55:00;;;;;;;8.48;3.30;;;23.50;54.30;;;;;;5034390;28;20049;-71
2023/09/14 10:57:29;;;;;;;8.40;3.63;;;23.30;54.30;;;;;;5044382;28;20087;-73
2023/09/14 11:00:01;;;;;;;9.27;4.05;;;23.10;54.40;;;;;;5041609;28;20029;-72
2023/09/14 11:02:46;;;;;;;7.07;2.90;;;22.90;54.60;;;;;;5032873;28;20068;-73
2023/09/14 11:05:20;;;;;;;7.55;3.08;;;22.70;55.10;;;;;;5060656;28;20132;-72
2023/09/14 11:07:53;;;;;;;11.00;3.15;;;22.50;55.50;;;;;;5039046;28;20069;-73
2023/09/14 11:10:21;;;;;;;9.65;3.50;;;22.40;55.70;;;;;;5035713;28;20056;-73
2023/09/14 11:12:49;;;;;;;12.38;3.08;;;22.30;55.90;;;;;;5045916;28;20029;-73
2023/09/14 11:15:17;;;;;;;8.52;3.45;;;22.20;56.00;;;;;;5037102;28;20079;-72
2023/09/14 11:17:51;;;;;;;8.25;3.15;;;22.20;56.30;;;;;;5039308;28;20021;-73
2023/09/14 11:20:20;;;;;;;9.32;3.25;;;22.10;56.30;;;;;;5037995;28;20029;-74
2023/09/14 11:22:49;;;;;;;9.98;3.15;;;22.10;56.70;;;;;;5042939;28;20036;-73
2023/09/14 11:25:36;;;;;;;7.80;3.10;;;22.10;56.60;;;;;;5055230;28;20028;-73
2023/09/14 11:28:06;;;;;;;7.60;3.20;;;22.00;56.50;;;;;;5054937;28;20037;-73
2023/09/14 11:30:33;;;;;;;7.20;3.47;;;22.00;56.90;;;;;;5043152;28;20100;-73
2023/09/14 11:33:04;;;;;;;6.93;3.13;;;21.90;56.90;;;;;;5043412;28;20068;-73
2023/09/14 11:35:34;;;;;;;8.27;3.33;;;21.90;56.90;;;;;;5054590;28;20078;-73
2023/09/14 11:38:02;;;;;;;7.75;3.15;;;21.90;57.30;;;;;;5046182;28;20090;-73
2023/09/14 11:40:32;;;;;;;9.40;3.10;;;21.80;57.10;;;;;;5027239;28;20033;-73
2023/09/14 11:43:08;;;;;;;7.82;3.03;;;21.80;57.20;;;;;;5046260;28;20090;-73
2023/09/14 11:45:41;;;;;;;8.40;3.40;;;21.80;57.70;;;;;;5064528;28;20044;-73
2023/09/14 11:48:09;;;;;;;9.05;3.55;;;21.70;57.40;;;;;;5053576;28;20025;-72
2023/09/14 11:50:35;;;;;;;9.57;3.40;;;21.70;57.40;;;;;;5054142;28;20033;-73
2023/09/14 11:53:01;;;;;;;7.95;3.10;;;21.60;57.20;;;;;;5043345;28;20025;-73
2023/09/14 11:55:30;;;;;;;8.18;3.40;;;21.60;57.20;;;;;;5043570;28;20030;-73
2023/09/14 11:57:57;;;;;;;9.40;3.75;;;21.60;57.10;;;;;;5026142;28;20053;-73
2023/09/14 12:00:24;;;;;;;8.00;3.42;;;21.60;57.10;;;;;;5034173;28;20028;-72
2023/09/14 12:02:50;;;;;;;7.70;3.10;;;21.60;57.10;;;;;;5032774;28;20451;-73
2023/09/14 12:05:16;;;;;;;7.00;2.88;;;21.60;57.30;;;;;;5039656;28;20079;-73
2023/09/14 12:07:43;;;;;;;6.93;2.80;;;21.60;57.20;;;;;;5053171;28;20033;-73
2023/09/14 12:10:21;;;;;;;8.73;2.88;;;21.70;57.00;;;;;;5049837;28;20108;-73
2023/09/14 12:12:47;;;;;;;6.60;2.92;;;21.70;56.70;;;;;;5050315;28;20032;-72
2023/09/14 12:15:20;;;;;;;7.70;3.17;;;21.80;56.60;;;;;;5038926;28;20029;-73
2023/09/14 12:17:51;;;;;;;8.05;2.90;;;22.00;56.30;;;;;;5016626;28;20087;-73
2023/09/14 12:20:17;;;;;;;7.13;2.60;;;22.10;55.90;;;;;;5050092;28;20040;-73
2023/09/14 12:22:44;;;;;;;8.45;2.70;;;22.20;55.50;;;;;;5034416;28;20298;-73
2023/09/14 12:25:11;;;;;;;6.45;2.88;;;22.30;55.20;;;;;;5015612;28;20083;-73
2023/09/14 12:27:37;;;;;;;6.90;2.45;;;22.30;55.20;;;;;;5034251;28;20029;-73
2023/09/14 12:30:05;;;;;;;8.23;2.65;;;22.30;55.00;;;;;;5033251;28;20018;-73
2023/09/14 12:32:32;;;;;;;7.22;2.67;;;22.20;54.90;;;;;;5033851;28;20459;-73
2023/09/14 12:34:59;;;;;;;8.30;2.42;;;22.20;55.00;;;;;;5032417;28;20399;-73
2023/09/14 12:37:26;;;;;;;6.43;2.40;;;22.20;55.30;;;;;;5034269;28;20025;-73
2023/09/14 12:39:52;;;;;;;7.28;2.90;;;22.10;55.70;;;;;;5049886;28;20025;-73
2023/09/14 12:42:20;;;;;;;7.90;2.83;;;22.10;55.80;;;;;;5033160;28;20052;-73
2023/09/14 12:44:47;;;;;;;6.53;2.55;;;22.10;55.60;;;;;;5032989;28;20087;-73
2023/09/14 12:47:13;;;;;;;6.75;2.47;;;22.20;55.40;;;;;;5048544;28;20059;-73